createdAt,value
2018-02-09T00:01:08.656Z,14.73
2018-02-09T00:03:36.127Z,13.85
2018-02-09T00:06:03.594Z,9.65
2018-02-09T00:08:31.078Z,14.63
2018-02-09T00:10:59.304Z,15.68
2018-02-09T00:13:26.766Z,12.55
2018-02-09T00:15:54.233Z,9.43
2018-02-09T00:18:21.720Z,14.38
2018-02-09T00:20:49.184Z,11.32
2018-02-09T00:23:16.662Z,8.80
2018-02-09T00:25:44.134Z,14.35
2018-02-09T00:28:12.353Z,11.10
2018-02-09T00:30:39.812Z,9.18
2018-02-09T00:33:07.282Z,12.60
2018-02-09T00:35:34.759Z,15.23
2018-02-09T00:38:02.231Z,14.43
2018-02-09T00:40:31.197Z,13.70
2018-02-09T00:42:58.995Z,12.80
2018-02-09T00:45:26.757Z,12.70
2018-02-09T00:47:54.214Z,16.83
2018-02-09T00:50:21.677Z,10.65
2018-02-09T00:52:49.151Z,12.60
2018-02-09T00:55:16.649Z,13.43
2018-02-09T00:57:44.112Z,12.30
2018-02-09T01:00:11.562Z,10.52
2018-02-09T01:02:39.804Z,15.75
2018-02-09T01:05:07.278Z,12.70
2018-02-09T01:07:34.763Z,9.77
2018-02-09T01:10:02.982Z,15.00
2018-02-09T01:12:30.428Z,12.25
2018-02-09T01:14:57.895Z,12.63
2018-02-09T01:17:25.367Z,18.40
2018-02-09T01:19:52.836Z,12.05
2018-02-09T01:22:20.309Z,13.35
2018-02-09T01:24:47.890Z,14.65
2018-02-09T01:27:18.048Z,11.70
2018-02-09T01:29:45.512Z,13.62
2018-02-09T01:32:13.010Z,15.98
2018-02-09T01:34:40.476Z,13.85
2018-02-09T01:37:07.956Z,14.50
2018-02-09T01:39:35.444Z,11.15
2018-02-09T01:42:03.290Z,17.60
2018-02-09T01:44:30.774Z,14.87
2018-02-09T01:46:58.216Z,13.33
2018-02-09T01:49:25.698Z,17.92
2018-02-09T01:51:53.180Z,17.10
2018-02-09T01:54:20.640Z,17.33
2018-02-09T01:56:48.108Z,13.80
2018-02-09T01:59:15.584Z,13.90
2018-02-09T02:01:43.064Z,17.33
2018-02-09T02:04:10.533Z,18.07
2018-02-09T02:06:38.013Z,14.87
2018-02-09T02:09:05.470Z,15.97
2018-02-09T02:11:32.939Z,13.55
2018-02-09T02:14:00.383Z,14.50
2018-02-09T02:16:29.350Z,13.30
2018-02-09T02:18:56.804Z,16.35
2018-02-09T02:21:24.298Z,14.65
2018-02-09T02:23:51.740Z,13.88
2018-02-09T02:26:19.191Z,14.40
2018-02-09T02:28:46.655Z,12.48
2018-02-09T02:31:14.115Z,13.98
2018-02-09T02:33:41.592Z,14.80
2018-02-09T02:36:09.045Z,13.20
2018-02-09T02:38:36.513Z,13.70
2018-02-09T02:41:03.986Z,16.37
2018-02-09T02:43:31.436Z,10.30
2018-02-09T02:45:58.926Z,12.37
2018-02-09T02:48:26.379Z,15.15
2018-02-09T02:50:54.596Z,15.63
2018-02-09T02:53:22.068Z,11.15
2018-02-09T02:55:49.528Z,12.63
2018-02-09T02:58:17.004Z,10.18
2018-02-09T03:00:44.473Z,18.37
2018-02-09T03:03:12.162Z,13.55
2018-02-09T03:05:39.629Z,13.60
2018-02-09T03:08:11.489Z,12.23
2018-02-09T03:10:38.979Z,15.48
2018-02-09T03:13:07.217Z,16.00
2018-02-09T03:15:35.561Z,16.30
2018-02-09T03:18:03.026Z,14.18
2018-02-09T03:20:33.341Z,10.83
2018-02-09T03:23:00.796Z,15.13
2018-02-09T03:25:28.245Z,20.27
2018-02-09T03:27:55.700Z,16.17
2018-02-09T03:30:23.162Z,14.10
2018-02-09T03:32:50.618Z,15.50
2018-02-09T03:35:18.083Z,10.85
2018-02-09T03:37:45.535Z,11.57
2018-02-09T03:40:13.006Z,11.70
2018-02-09T03:42:40.490Z,12.37
2018-02-09T03:45:07.955Z,12.45
2018-02-09T03:47:35.441Z,16.80
2018-02-09T03:50:02.885Z,12.40
2018-02-09T03:52:30.345Z,13.32
2018-02-09T03:54:57.813Z,13.18
2018-02-09T03:57:25.269Z,13.70
2018-02-09T03:59:52.754Z,13.38
2018-02-09T04:02:20.217Z,8.02
2018-02-09T04:04:47.668Z,13.80
2018-02-09T04:07:15.130Z,14.02
2018-02-09T04:09:42.598Z,12.43
2018-02-09T04:12:10.075Z,13.37
2018-02-09T04:14:37.520Z,12.20
2018-02-09T04:17:04.990Z,15.13
2018-02-09T04:19:32.470Z,14.25
2018-02-09T04:21:59.921Z,16.25
2018-02-09T04:24:27.385Z,9.67
2018-02-09T04:26:54.825Z,9.60
2018-02-09T04:29:22.302Z,12.52
2018-02-09T04:31:49.785Z,15.80
2018-02-09T04:34:17.253Z,16.48
2018-02-09T04:36:45.480Z,17.03
2018-02-09T04:39:12.929Z,16.27
2018-02-09T04:41:40.406Z,17.47
2018-02-09T04:44:07.883Z,14.33
2018-02-09T04:46:35.338Z,14.18
2018-02-09T04:49:02.933Z,18.15
2018-02-09T04:51:30.403Z,11.87
2018-02-09T04:53:57.860Z,12.13
2018-02-09T04:56:25.324Z,14.50
2018-02-09T04:58:52.781Z,10.30
2018-02-09T05:01:20.259Z,15.10
2018-02-09T05:03:47.729Z,10.63
2018-02-09T05:06:15.194Z,14.90
2018-02-09T05:08:42.667Z,14.77
2018-02-09T05:11:10.121Z,10.32
2018-02-09T05:13:37.584Z,14.75
2018-02-09T05:16:05.297Z,11.87
2018-02-09T05:18:32.792Z,10.60
2018-02-09T05:21:00.253Z,11.68
2018-02-09T05:23:27.715Z,20.30
2018-02-09T05:25:55.180Z,12.67
2018-02-09T05:28:22.636Z,14.02
2018-02-09T05:30:50.104Z,16.77
2018-02-09T05:33:17.565Z,12.93
2018-02-09T05:35:45.016Z,12.25
2018-02-09T05:38:13.184Z,14.47
2018-02-09T05:40:40.654Z,12.98
2018-02-09T05:43:08.867Z,13.47
2018-02-09T05:45:36.326Z,12.77
2018-02-09T05:48:03.778Z,11.87
2018-02-09T05:50:34.142Z,14.03
2018-02-09T05:53:01.593Z,17.77
2018-02-09T05:55:29.050Z,9.60
2018-02-09T05:57:56.822Z,15.50
2018-02-09T06:00:24.270Z,12.27
2018-02-09T06:02:51.729Z,12.17
2018-02-09T06:05:19.190Z,14.20
2018-02-09T06:07:46.640Z,11.47
2018-02-09T06:10:14.126Z,12.87
2018-02-09T06:12:41.577Z,14.07
2018-02-09T06:15:09.037Z,13.63
2018-02-09T06:17:36.487Z,15.07
2018-02-09T06:20:03.925Z,10.80
2018-02-09T06:22:31.380Z,11.50
2018-02-09T06:24:58.833Z,11.40
2018-02-09T06:27:26.312Z,12.15
2018-02-09T06:29:53.768Z,13.27
2018-02-09T06:32:21.230Z,16.27
2018-02-09T06:34:48.698Z,11.07
2018-02-09T06:37:16.145Z,15.10
2018-02-09T06:39:43.605Z,14.50
2018-02-09T06:42:11.064Z,13.77
2018-02-09T06:44:38.512Z,12.55
2018-02-09T06:47:05.965Z,12.60
2018-02-09T06:49:33.431Z,14.77
2018-02-09T06:52:00.885Z,15.20
2018-02-09T06:54:28.338Z,13.23
2018-02-09T06:56:55.776Z,13.97
2018-02-09T06:59:23.249Z,15.47
2018-02-09T07:01:50.726Z,14.50
2018-02-09T07:04:18.181Z,14.53
2018-02-09T07:06:45.619Z,16.87
2018-02-09T07:09:13.073Z,14.53
2018-02-09T07:11:40.562Z,11.43
2018-02-09T07:14:08.004Z,12.47
2018-02-09T07:16:35.460Z,14.97
2018-02-09T07:19:02.915Z,11.67
2018-02-09T07:21:31.142Z,9.80
2018-02-09T07:23:58.612Z,15.32
2018-02-09T07:26:29.542Z,16.37
2018-02-09T07:28:57.003Z,17.02
2018-02-09T07:31:24.608Z,11.68
2018-02-09T07:33:52.056Z,14.20
2018-02-09T07:36:19.514Z,15.80
2018-02-09T07:38:46.961Z,15.77
2018-02-09T07:41:14.506Z,13.90
2018-02-09T07:43:41.965Z,13.60
2018-02-09T07:46:09.421Z,16.03
2018-02-09T07:48:36.880Z,13.57
2018-02-09T07:51:04.317Z,17.50
2018-02-09T07:53:31.763Z,13.80
2018-02-09T07:55:59.221Z,14.17
2018-02-09T07:58:26.709Z,16.93
2018-02-09T08:00:54.209Z,15.30
2018-02-09T08:03:21.653Z,16.17
2018-02-09T08:05:49.115Z,16.17
2018-02-09T08:08:16.572Z,15.73
2018-02-09T08:10:44.021Z,18.10
2018-02-09T08:13:11.489Z,14.97
2018-02-09T08:15:38.956Z,10.00
2018-02-09T08:18:06.617Z,15.30
2018-02-09T08:20:36.300Z,15.47
2018-02-09T08:23:03.752Z,17.63
2018-02-09T08:25:31.216Z,14.33
2018-02-09T08:27:58.683Z,25.10
2018-02-09T08:30:26.129Z,24.45
2018-02-09T08:32:55.098Z,25.90
2018-02-09T08:35:22.542Z,17.87
2018-02-09T08:37:50.006Z,15.90
2018-02-09T08:40:17.453Z,23.75
2018-02-09T08:42:44.888Z,16.87
2018-02-09T08:45:12.356Z,14.87
2018-02-09T08:47:39.801Z,12.13
2018-02-09T08:50:07.548Z,15.60
2018-02-09T08:52:35.011Z,24.75
2018-02-09T08:55:02.469Z,23.30
2018-02-09T08:57:29.940Z,19.90
2018-02-09T08:59:57.390Z,17.27
2018-02-09T09:02:24.950Z,23.58
2018-02-09T09:04:52.409Z,27.10
2018-02-09T09:07:19.848Z,19.93
2018-02-09T09:09:47.308Z,16.03
2018-02-09T09:12:14.785Z,12.67
2018-02-09T09:14:42.252Z,18.60
2018-02-09T09:17:09.714Z,16.70
2018-02-09T09:19:37.181Z,24.45
2018-02-09T09:22:04.642Z,26.02
2018-02-09T09:24:32.120Z,20.40
2018-02-09T09:26:59.583Z,26.17
2018-02-09T09:29:27.122Z,24.30
2018-02-09T09:31:54.584Z,22.67
2018-02-09T09:34:22.037Z,18.53
2018-02-09T09:36:49.498Z,24.43
2018-02-09T09:39:16.964Z,16.50
2018-02-09T09:41:44.432Z,27.42
2018-02-09T09:44:11.873Z,27.95
2018-02-09T09:46:39.349Z,21.60
2018-02-09T09:49:06.788Z,16.33
2018-02-09T09:51:34.289Z,15.20
2018-02-09T09:54:01.766Z,13.03
2018-02-09T09:56:29.208Z,14.30
2018-02-09T09:58:56.686Z,14.70
2018-02-09T10:01:29.879Z,12.13
2018-02-09T10:03:57.339Z,11.67
2018-02-09T10:06:24.793Z,18.00
2018-02-09T10:08:52.264Z,16.20
2018-02-09T10:11:19.766Z,14.70
2018-02-09T10:13:47.224Z,19.60
2018-02-09T10:16:14.685Z,27.27
2018-02-09T10:18:42.137Z,29.37
2018-02-09T10:21:09.586Z,23.80
2018-02-09T10:23:37.028Z,25.33
2018-02-09T10:26:04.479Z,28.00
2018-02-09T10:28:31.955Z,22.73
2018-02-09T10:30:59.456Z,22.60
2018-02-09T10:33:26.889Z,21.10
2018-02-09T10:35:54.374Z,21.17
2018-02-09T10:38:21.862Z,22.63
2018-02-09T10:40:49.319Z,19.90
2018-02-09T10:43:16.794Z,22.10
2018-02-09T10:45:44.363Z,20.17
2018-02-09T10:48:11.838Z,19.43
2018-02-09T10:50:40.694Z,18.83
2018-02-09T10:53:08.164Z,17.90
2018-02-09T10:55:35.609Z,14.40
2018-02-09T10:58:03.062Z,16.33
2018-02-09T11:00:36.893Z,15.57
2018-02-09T11:03:11.224Z,17.23
2018-02-09T11:05:38.689Z,16.37
2018-02-09T11:08:06.152Z,16.27
2018-02-09T11:10:33.614Z,13.47
2018-02-09T11:13:06.736Z,12.20
2018-02-09T11:15:35.494Z,21.92
2018-02-09T11:18:02.933Z,19.23
2018-02-09T11:20:30.400Z,17.10
2018-02-09T11:22:57.866Z,23.25
2018-02-09T11:25:25.323Z,20.08
2018-02-09T11:27:53.025Z,20.80
2018-02-09T11:30:20.492Z,20.75
2018-02-09T11:32:47.945Z,15.07
2018-02-09T11:35:15.420Z,21.15
2018-02-09T11:37:42.890Z,16.77
2018-02-09T11:40:10.349Z,15.00
2018-02-09T11:42:38.012Z,12.33
2018-02-09T11:45:05.461Z,11.83
2018-02-09T11:47:32.908Z,12.17
2018-02-09T11:56:43.210Z,8.40
2018-02-09T11:59:10.658Z,12.13
2018-02-09T12:01:38.136Z,13.47
2018-02-09T12:04:05.571Z,10.97
2018-02-09T12:06:33.023Z,12.57
2018-02-09T12:09:01.274Z,12.13
2018-02-09T12:11:28.902Z,15.27
2018-02-09T12:13:56.373Z,7.83
2018-02-09T12:16:23.823Z,8.10
2018-02-09T12:18:51.272Z,13.73
2018-02-09T12:21:18.755Z,10.93
2018-02-09T12:23:46.187Z,11.40
2018-02-09T12:26:13.656Z,8.67
2018-02-09T12:28:41.106Z,11.27
2018-02-09T12:31:08.811Z,11.07
2018-02-09T12:33:36.275Z,10.40
2018-02-09T12:36:03.737Z,8.20
2018-02-09T12:38:31.196Z,13.07
2018-02-09T12:40:58.653Z,10.80
2018-02-09T12:43:26.099Z,5.77
2018-02-09T12:45:53.559Z,11.93
2018-02-09T12:48:21.021Z,7.40
2018-02-09T12:50:48.484Z,9.13
2018-02-09T12:53:15.940Z,7.53
2018-02-09T12:55:44.950Z,9.80
2018-02-09T12:58:12.420Z,15.25
2018-02-09T13:00:39.891Z,16.20
2018-02-09T13:03:07.344Z,9.50
2018-02-09T13:05:35.113Z,10.37
2018-02-09T13:08:02.561Z,8.67
2018-02-09T13:10:30.040Z,11.57
2018-02-09T13:13:11.136Z,16.13
2018-02-09T13:15:38.598Z,17.85
2018-02-09T13:18:06.067Z,14.45
2018-02-09T13:20:34.898Z,9.77
2018-02-09T13:23:14.173Z,10.63
2018-02-09T13:25:41.625Z,13.33
2018-02-09T13:28:09.092Z,14.00
2018-02-09T13:30:39.360Z,9.93
2018-02-09T13:33:27.482Z,9.03
2018-02-09T13:35:54.936Z,10.33
2018-02-09T13:38:22.396Z,7.83
2018-02-09T13:40:49.838Z,11.90
2018-02-09T13:43:17.296Z,11.10
2018-02-09T13:45:44.744Z,10.87
2018-02-09T13:48:12.203Z,9.97
2018-02-09T13:50:39.669Z,8.50
2018-02-09T13:53:07.109Z,7.90
2018-02-09T13:55:34.552Z,7.10
2018-02-09T13:58:02.216Z,9.13
2018-02-09T14:00:30.609Z,13.10
2018-02-09T14:02:58.066Z,9.67
2018-02-09T14:05:25.500Z,8.80
2018-02-09T14:07:53.000Z,9.83
2018-02-09T14:10:20.466Z,11.73
2018-02-09T14:12:47.912Z,10.63
2018-02-09T14:15:15.380Z,6.77
2018-02-09T14:17:42.867Z,11.03
2018-02-09T14:20:10.329Z,6.33
2018-02-09T14:22:37.807Z,7.87
2018-02-09T14:25:05.250Z,9.73
2018-02-09T14:27:32.708Z,5.73
2018-02-09T14:30:00.167Z,6.67
2018-02-09T14:32:27.631Z,11.57
2018-02-09T14:34:55.109Z,11.40
2018-02-09T14:37:22.548Z,8.27
2018-02-09T14:39:50.006Z,10.63
2018-02-09T14:42:18.221Z,12.13
2018-02-09T14:44:46.524Z,8.30
2018-02-09T14:47:13.990Z,11.13
2018-02-09T14:49:41.444Z,9.57
2018-02-09T14:52:08.912Z,10.73
2018-02-09T14:54:36.345Z,8.50
2018-02-09T14:57:03.789Z,10.63
2018-02-09T14:59:31.256Z,8.23
2018-02-09T15:01:58.721Z,10.50
2018-02-09T15:04:26.183Z,10.23
2018-02-09T15:06:53.908Z,9.75
2018-02-09T15:09:21.371Z,11.30
2018-02-09T15:11:49.589Z,15.73
2018-02-09T15:14:17.051Z,9.83
2018-02-09T15:16:44.510Z,13.77
2018-02-09T15:19:11.955Z,13.10
2018-02-09T15:21:39.420Z,11.00
2018-02-09T15:24:06.873Z,11.07
2018-02-09T15:26:34.328Z,10.57
2018-02-09T15:29:01.791Z,6.87
2018-02-09T15:31:29.266Z,12.05
2018-02-09T15:33:56.813Z,13.35
2018-02-09T15:36:24.285Z,10.60
2018-02-09T15:38:51.720Z,8.80
2018-02-09T15:41:19.191Z,7.80
2018-02-09T15:43:46.643Z,13.55
2018-02-09T15:46:14.111Z,7.83
2018-02-09T15:48:41.556Z,12.67
2018-02-09T15:51:09.014Z,7.80
2018-02-09T15:53:36.473Z,10.52
2018-02-09T15:56:03.934Z,8.60
2018-02-09T15:58:31.407Z,8.17
2018-02-09T16:00:58.903Z,10.50
2018-02-09T16:03:26.368Z,8.33
2018-02-09T16:05:53.812Z,9.03
2018-02-09T16:08:21.268Z,9.10
2018-02-09T16:10:48.733Z,8.40
2018-02-09T16:13:16.181Z,5.40
2018-02-09T16:15:43.639Z,8.40
2018-02-09T16:18:11.081Z,12.03
2018-02-09T16:20:38.559Z,9.30
2018-02-09T16:23:06.023Z,5.70
2018-02-09T16:25:33.484Z,6.17
2018-02-09T16:28:00.933Z,10.27
2018-02-09T16:30:30.987Z,9.93
2018-02-09T16:32:59.205Z,8.70
2018-02-09T16:35:26.646Z,8.63
2018-02-09T16:37:54.123Z,7.80
2018-02-09T16:40:21.572Z,7.80
2018-02-09T16:42:49.040Z,10.53
2018-02-09T16:45:16.491Z,10.17
2018-02-09T16:47:43.953Z,7.50
2018-02-09T16:50:11.409Z,11.00
2018-02-09T16:52:38.867Z,9.27
2018-02-09T16:55:06.301Z,9.13
2018-02-09T16:57:33.778Z,8.10
2018-02-09T17:00:01.229Z,9.33
2018-02-09T17:02:28.694Z,10.13
2018-02-09T17:04:56.140Z,7.70
2018-02-09T17:07:23.612Z,7.50
2018-02-09T17:09:51.817Z,8.23
2018-02-09T17:12:19.257Z,10.63
2018-02-09T17:14:46.719Z,5.80
2018-02-09T17:17:14.933Z,5.80
2018-02-09T17:19:42.731Z,9.27
2018-02-09T17:22:10.176Z,10.23
2018-02-09T17:24:37.639Z,11.70
2018-02-09T17:27:05.098Z,7.97
2018-02-09T17:29:32.558Z,11.90
2018-02-09T17:32:00.035Z,8.63
2018-02-09T17:34:27.476Z,10.30
2018-02-09T17:36:54.931Z,9.20
2018-02-09T17:39:22.392Z,8.73
2018-02-09T17:41:49.859Z,12.63
2018-02-09T17:44:17.316Z,11.80
2018-02-09T17:46:44.786Z,8.40
2018-02-09T17:49:12.240Z,9.90
2018-02-09T17:51:39.708Z,10.13
2018-02-09T17:54:07.158Z,9.00
2018-02-09T17:56:34.610Z,8.93
2018-02-09T17:59:02.076Z,9.37
2018-02-09T18:01:29.838Z,8.10
2018-02-09T18:03:57.285Z,6.80
2018-02-09T18:06:24.729Z,5.27
2018-02-09T18:08:52.185Z,10.60
2018-02-09T18:11:19.650Z,8.70
2018-02-09T18:13:47.100Z,9.63
2018-02-09T18:16:14.545Z,8.37
2018-02-09T18:18:42.011Z,10.93
2018-02-09T18:21:09.477Z,15.33
2018-02-09T18:23:37.348Z,13.90
2018-02-09T18:26:05.070Z,9.80
2018-02-09T18:28:32.516Z,10.77
2018-02-09T18:30:59.973Z,10.73
2018-02-09T18:33:27.428Z,12.30
2018-02-09T18:35:54.877Z,9.23
2018-02-09T18:38:22.324Z,9.00
2018-02-09T18:40:49.783Z,10.87
2018-02-09T18:43:17.216Z,10.50
2018-02-09T18:45:44.686Z,9.00
2018-02-09T18:48:12.140Z,11.70
2018-02-09T18:50:39.614Z,8.50
2018-02-09T18:53:07.060Z,8.83
2018-02-09T18:55:34.526Z,8.73
2018-02-09T18:58:01.979Z,12.47
2018-02-09T19:00:31.255Z,9.90
2018-02-09T19:02:58.755Z,10.83
2018-02-09T19:05:26.205Z,10.20
2018-02-09T19:07:53.667Z,6.70
2018-02-09T19:10:21.121Z,6.33
2018-02-09T19:12:48.557Z,12.47
2018-02-09T19:15:16.009Z,11.23
2018-02-09T19:17:43.440Z,8.27
2018-02-09T19:20:10.896Z,8.23
2018-02-09T19:22:38.342Z,9.13
2018-02-09T19:25:05.813Z,6.10
2018-02-09T19:27:36.542Z,7.20
2018-02-09T19:30:03.991Z,11.93
2018-02-09T19:32:31.445Z,8.90
2018-02-09T19:34:58.888Z,6.70
2018-02-09T19:37:26.353Z,8.63
2018-02-09T19:39:53.814Z,8.87
2018-02-09T19:42:21.258Z,7.00
2018-02-09T19:44:48.724Z,7.83
2018-02-09T19:47:16.191Z,7.83
2018-02-09T19:49:44.443Z,12.17
2018-02-09T19:52:11.900Z,7.50
2018-02-09T19:54:39.353Z,5.80
2018-02-09T19:57:06.792Z,9.47
2018-02-09T19:59:34.245Z,8.87
2018-02-09T20:02:01.722Z,8.07
2018-02-09T20:04:29.156Z,8.00
2018-02-09T20:06:56.631Z,7.37
2018-02-09T20:09:24.081Z,8.13
2018-02-09T20:11:51.549Z,9.70
2018-02-09T20:14:19.017Z,9.60
2018-02-09T20:16:46.462Z,7.07
2018-02-09T20:19:13.913Z,7.90
2018-02-09T20:21:41.358Z,8.77
2018-02-09T20:24:08.804Z,8.03
2018-02-09T20:26:36.269Z,6.40
2018-02-09T20:29:03.731Z,7.50
2018-02-09T20:31:31.203Z,6.83
2018-02-09T20:34:00.310Z,11.13
2018-02-09T20:36:27.757Z,9.40
2018-02-09T20:38:55.210Z,9.13
2018-02-09T20:41:22.675Z,9.33
2018-02-09T20:43:50.130Z,7.17
2018-02-09T20:46:17.596Z,8.70
2018-02-09T20:48:45.030Z,11.17
2018-02-09T20:51:12.513Z,8.00
2018-02-09T20:53:39.958Z,11.10
2018-02-09T20:56:07.408Z,9.30
2018-02-09T20:58:34.851Z,6.07
2018-02-09T21:01:02.304Z,9.77
2018-02-09T21:03:29.760Z,13.87
2018-02-09T21:05:57.209Z,8.67
2018-02-09T21:08:24.679Z,9.40
2018-02-09T21:10:52.112Z,9.57
2018-02-09T21:13:19.570Z,7.10
2018-02-09T21:15:47.032Z,14.20
2018-02-09T21:18:14.494Z,9.53
2018-02-09T21:20:41.950Z,10.63
2018-02-09T21:23:09.390Z,10.50
2018-02-09T21:25:36.858Z,8.47
2018-02-09T21:28:04.302Z,14.13
2018-02-09T21:30:32.282Z,14.83
2018-02-09T21:32:59.736Z,14.70
2018-02-09T21:35:27.222Z,9.80
2018-02-09T21:37:55.080Z,11.10
2018-02-09T21:40:22.532Z,7.57
2018-02-09T21:42:50.049Z,7.10
2018-02-09T21:45:17.439Z,7.13
2018-02-09T21:47:44.889Z,8.20
2018-02-09T21:50:12.353Z,8.07
2018-02-09T21:52:39.800Z,8.40
2018-02-09T21:55:07.252Z,6.03
2018-02-09T21:57:34.695Z,7.63
2018-02-09T22:00:02.155Z,7.77
2018-02-09T22:02:29.617Z,5.30
2018-02-09T22:04:57.353Z,5.33
2018-02-09T22:07:24.823Z,7.00
2018-02-09T22:09:52.279Z,8.47
2018-02-09T22:12:19.761Z,8.10
2018-02-09T22:14:47.220Z,6.97
2018-02-09T22:17:14.673Z,8.77
2018-02-09T22:19:42.139Z,6.40
2018-02-09T22:22:09.603Z,9.37
2018-02-09T22:24:37.076Z,8.27
2018-02-09T22:27:05.293Z,10.30
2018-02-09T22:29:32.749Z,10.57
2018-02-09T22:32:00.208Z,9.37
2018-02-09T22:34:27.656Z,10.67
2018-02-09T22:36:55.119Z,8.67
2018-02-09T22:39:23.359Z,8.90
2018-02-09T22:41:50.815Z,7.87
2018-02-09T22:44:18.490Z,8.03
2018-02-09T22:46:45.935Z,6.37
2018-02-09T22:49:13.397Z,10.07
2018-02-09T22:51:40.998Z,8.90
2018-02-09T22:54:08.466Z,7.17
2018-02-09T22:56:35.941Z,6.60
2018-02-09T22:59:03.389Z,8.90
2018-02-09T23:01:30.867Z,7.87
2018-02-09T23:03:58.309Z,7.40
2018-02-09T23:06:26.105Z,9.40
2018-02-09T23:08:53.570Z,5.43
2018-02-09T23:11:21.047Z,7.97
2018-02-09T23:13:48.505Z,9.67
2018-02-09T23:16:15.966Z,6.63
2018-02-09T23:18:43.425Z,8.10
2018-02-09T23:21:10.911Z,9.33
2018-02-09T23:23:38.364Z,7.33
2018-02-09T23:26:06.149Z,9.07
2018-02-09T23:28:33.588Z,8.17
2018-02-09T23:31:01.050Z,10.97
2018-02-09T23:33:28.512Z,7.40
2018-02-09T23:35:55.977Z,6.83
2018-02-09T23:38:23.442Z,6.70
2018-02-09T23:40:50.888Z,7.40
2018-02-09T23:43:18.421Z,7.87
2018-02-09T23:45:45.876Z,5.57
2018-02-09T23:48:13.324Z,9.37
2018-02-09T23:50:41.150Z,6.93
2018-02-09T23:53:08.608Z,9.90
2018-02-09T23:55:36.083Z,7.70
2018-02-09T23:58:03.549Z,10.47
